Hillburn, New York
Current Conditions -  °F | °C
As of 10:53 AM on Tuesday 21 Oct 2014 (Local Time) from KCDW Reporting Station
Overcast Overcast  
Wind Chill: 57°   Ceiling: 6000
Heat Index: 57°   Visibility: 10mi
Dew Point: 48°   Wind: 3mph
Humidity: 72%   Direction: NA
Pressure: 29.9"   Gusts: NA
Location:  41.12°N, 74.17°W
Report Text: KCDW 211453Z VRB03KT 10SM OVC060 14/09 A2990 RMK AO2 RAB1355E06 SLP130 P0000 60000 T01390089 50002
Loading
Personal Weather Stations






























Interactive Weather Map
Tropical Storm Tracking
New forecast layout! Learn more

10-Day Weather Forecast

Advertisements
Track Severe Weather on mobile